Time;durP1;ratioP1;P1;durP2;ratioP2;P2;SDS_P1;SDS_P2;PMS_P1;PMS_P2;Temp;Humidity;BMP_temperature;BMP_pressure;BME280_temperature;BME280_humidity;BME280_pressure;Samples;Min_cycle;Max_cycle;Signal;HPM_P1;HPM_P2
2023/08/04 00:00:37;;;;;;;2.90;0.80;;;;;;;-145.69;68.63;52034.47;5099550;28;20281;-83
2023/08/04 00:03:05;;;;;;;1.80;0.80;;;;;;;-145.69;68.84;52030.50;5099188;28;20202;-83
2023/08/04 00:05:32;;;;;;;3.50;0.80;;;;;;;-145.69;69.66;52036.44;5097418;28;20206;-83
2023/08/04 00:08:04;;;;;;;1.77;0.63;;;;;;;-145.69;69.72;52020.59;5098995;28;20209;-83
2023/08/04 00:10:30;;;;;;;1.63;0.67;;;;;;;-145.69;69.25;52028.53;5099435;28;20553;-83
2023/08/04 00:12:57;;;;;;;2.57;0.77;;;;;;;-145.69;70.18;52028.53;5105912;28;20206;-84
2023/08/04 00:15:26;;;;;;;0.80;0.60;;;;;;;-145.69;70.02;52004.75;5098306;28;20242;-84
2023/08/04 00:17:52;;;;;;;1.47;0.70;;;;;;;-145.69;70.92;52032.47;5096992;28;20712;-83
2023/08/04 00:20:20;;;;;;;2.80;0.80;;;;;;;-145.69;70.60;52012.69;5097986;28;20202;-84
2023/08/04 00:22:50;;;;;;;5.73;0.90;;;;;;;-145.69;71.10;52028.53;5096570;28;20240;-83
2023/08/04 00:25:16;;;;;;;3.20;1.10;;;;;;;-145.69;72.05;51998.81;5096687;28;20194;-83
2023/08/04 00:27:45;;;;;;;1.27;0.90;;;;;;;-145.69;71.18;52018.63;5096387;28;20296;-84
2023/08/04 00:30:12;;;;;;;3.17;0.80;;;;;;;-145.69;71.02;52004.75;5097072;28;20205;-84
2023/08/04 00:32:39;;;;;;;1.93;0.80;;;;;;;-145.69;70.97;52000.81;5097128;28;20284;-83
2023/08/04 00:35:06;;;;;;;0.80;0.80;;;;;;;-145.69;71.08;52022.59;5095634;28;20301;-84
2023/08/04 00:37:35;;;;;;;2.57;0.80;;;;;;;-145.69;71.15;52034.47;5095613;28;20235;-83
2023/08/04 00:40:04;;;;;;;2.07;0.90;;;;;;;-145.69;71.54;52044.38;5095580;28;20245;-83
2023/08/04 00:42:32;;;;;;;1.03;0.70;;;;;;;-145.69;70.62;52028.53;5095459;28;20194;-83
2023/08/04 00:45:05;;;;;;;2.10;0.80;;;;;;;-145.69;71.14;52060.22;5095680;28;20206;-83
2023/08/04 00:47:35;;;;;;;1.00;0.90;;;;;;;-145.69;71.56;52032.47;5095279;28;20225;-83
2023/08/04 00:50:03;;;;;;;2.03;0.97;;;;;;;-145.69;71.19;52042.38;5095281;28;20229;-84
2023/08/04 00:52:32;;;;;;;2.70;0.87;;;;;;;-145.69;71.72;52020.59;5095527;28;20206;-83
2023/08/04 00:55:03;;;;;;;1.40;0.97;;;;;;;-145.69;71.05;51998.81;5096705;28;20671;-84
2023/08/04 00:57:30;;;;;;;3.60;0.73;;;;;;;-145.69;71.89;52012.69;5095323;28;20279;-83
2023/08/04 00:59:59;;;;;;;1.00;0.87;;;;;;;-145.69;71.52;52046.34;5075966;28;20219;-83
2023/08/04 01:02:25;;;;;;;2.57;1.00;;;;;;;-145.69;71.79;52046.34;5086516;28;20305;-83
2023/08/04 01:04:52;;;;;;;1.23;0.70;;;;;;;-145.69;72.24;52010.69;5095753;28;20213;-84
2023/08/04 01:07:23;;;;;;;1.77;1.00;;;;;;;-145.69;72.52;52024.56;5094949;28;20552;-83
2023/08/04 01:10:04;;;;;;;2.87;0.90;;;;;;;-145.69;71.68;52008.72;5094818;28;20202;-83
2023/08/04 01:12:44;;;;;;;3.03;1.00;;;;;;;-145.69;71.42;52004.75;5095006;28;20210;-83
2023/08/04 01:15:14;;;;;;;1.50;1.00;;;;;;;-145.69;70.89;52024.56;5092749;28;20234;-83
2023/08/04 01:17:41;;;;;;;3.60;1.03;;;;;;;-145.69;71.28;51986.94;5091102;28;20222;-83
2023/08/04 01:20:13;;;;;;;4.40;1.00;;;;;;;-145.69;71.16;52022.59;5096094;28;20209;-83
2023/08/04 01:22:41;;;;;;;2.83;0.87;;;;;;;-145.69;71.03;52044.38;5094679;28;20198;-84
2023/08/04 01:25:08;;;;;;;2.20;1.00;;;;;;;-145.69;71.27;52012.69;5094490;28;20471;-84
2023/08/04 01:27:39;;;;;;;7.50;0.90;;;;;;;-145.69;70.26;52032.47;5094983;28;20220;-84
2023/08/04 01:30:10;;;;;;;3.50;1.00;;;;;;;-145.69;70.58;52016.66;5097489;28;20230;-83
2023/08/04 01:32:39;;;;;;;4.23;1.10;;;;;;;-145.69;70.23;52008.72;5095649;28;20202;-83
2023/08/04 01:35:09;;;;;;;6.00;0.90;;;;;;;-145.69;70.06;52012.69;5095435;28;20589;-83
2023/08/04 01:37:35;;;;;;;1.53;0.80;;;;;;;-145.69;69.94;51984.97;5094519;28;20577;-84
2023/08/04 01:40:04;;;;;;;2.67;1.07;;;;;;;-145.69;68.94;52028.53;5092280;28;20288;-84
2023/08/04 01:42:30;;;;;;;3.47;1.10;;;;;;;-145.69;69.27;52022.59;5094577;28;20289;-83
2023/08/04 01:44:57;;;;;;;1.83;0.90;;;;;;;-145.69;69.28;52008.72;5093745;28;20206;-83
2023/08/04 01:47:23;;;;;;;2.45;0.98;;;;;;;-145.69;68.75;51990.91;5093787;28;20285;-82
2023/08/04 01:49:51;;;;;;;3.40;1.27;;;;;;;-145.69;68.34;52042.38;5094222;28;20645;-83
2023/08/04 01:52:20;;;;;;;2.30;0.60;;;;;;;-145.69;68.21;52006.75;5093819;28;20224;-83
2023/08/04 01:54:46;;;;;;;1.20;0.70;;;;;;;-145.69;68.01;51984.97;5093947;28;20226;-83
2023/08/04 01:57:16;;;;;;;5.85;0.90;;;;;;;-145.69;67.82;52026.53;5094064;28;20222;-82
2023/08/04 01:59:46;;;;;;;2.55;0.90;;;;;;;-145.69;67.55;52014.66;5090609;28;20209;-83
2023/08/04 02:02:13;;;;;;;1.30;0.90;;;;;;;-145.69;67.71;52000.81;5093460;28;20198;-82
2023/08/04 02:04:40;;;;;;;3.33;0.83;;;;;;;-145.69;67.64;51992.88;5093920;28;20213;-83
2023/08/04 02:07:08;;;;;;;1.67;0.77;;;;;;;-145.69;68.34;52008.72;5093360;28;20502;-83
2023/08/04 02:09:38;;;;;;;1.60;0.63;;;;;;;-145.69;67.70;52042.38;5094176;28;20212;-83
2023/08/04 02:12:08;;;;;;;3.77;0.97;;;;;;;-145.69;67.96;52018.63;5092551;28;20657;-83
2023/08/04 02:14:36;;;;;;;1.63;0.90;;;;;;;-145.69;68.26;51977.03;5093335;28;20569;-83
2023/08/04 02:17:04;;;;;;;1.20;0.80;;;;;;;-145.69;68.67;52026.53;5093611;28;20202;-82
2023/08/04 02:19:34;;;;;;;2.77;0.87;;;;;;;-145.69;68.57;51973.06;5093380;28;20280;-84
2023/08/04 02:22:00;;;;;;;5.57;0.90;;;;;;;-145.69;68.61;52012.69;5093477;28;20205;-82
2023/08/04 02:24:35;;;;;;;1.47;0.97;;;;;;;-145.69;68.81;52024.56;5093122;28;20667;-83
2023/08/04 02:27:02;;;;;;;2.47;0.93;;;;;;;-145.69;68.39;51973.06;5093488;28;20255;-83
2023/08/04 02:29:28;;;;;;;1.93;0.80;;;;;;;-145.69;68.39;52032.47;5093483;28;20259;-83
2023/08/04 02:31:56;;;;;;;3.33;0.90;;;;;;;-145.69;67.53;51996.84;5093761;28;20286;-83
2023/08/04 02:34:23;;;;;;;2.45;1.00;;;;;;;-145.69;67.32;51975.06;5092975;28;20194;-82
2023/08/04 02:36:49;;;;;;;0.95;0.70;;;;;;;-145.69;66.21;51990.91;5093453;28;20194;-83
2023/08/04 02:39:18;;;;;;;4.68;1.02;;;;;;;-145.69;66.14;52018.63;5093299;28;20233;-82
2023/08/04 02:41:44;;;;;;;1.77;0.80;;;;;;;-145.69;66.03;51992.88;5092931;28;20280;-82
2023/08/04 02:44:11;;;;;;;1.27;0.73;;;;;;;-145.69;66.58;51992.88;5092821;28;20530;-82
2023/08/04 02:46:37;;;;;;;1.48;0.70;;;;;;;-145.69;66.44;51984.97;5092998;28;20206;-81
2023/08/04 02:49:05;;;;;;;2.30;0.80;;;;;;;-145.69;66.36;52026.53;5092957;28;20206;-83
2023/08/04 02:51:32;;;;;;;0.93;0.68;;;;;;;-145.69;66.98;51992.88;5094625;28;20198;-83
2023/08/04 02:53:58;;;;;;;1.08;0.73;;;;;;;-145.69;67.06;51981.00;5093760;28;20198;-84
2023/08/04 02:56:28;;;;;;;0.90;0.63;;;;;;;-145.69;66.75;51992.88;5092533;28;20210;-83
2023/08/04 02:58:54;;;;;;;4.00;0.70;;;;;;;-145.69;67.60;51994.88;5093554;28;20225;-83
2023/08/04 03:01:21;;;;;;;1.70;0.70;;;;;;;-145.69;67.70;52004.75;5092819;28;20678;-83
2023/08/04 03:03:47;;;;;;;1.55;0.80;;;;;;;-145.69;67.87;51992.88;5093058;28;20263;-84
2023/08/04 03:06:15;;;;;;;1.55;0.98;;;;;;;-145.69;67.19;52004.75;5091231;28;20297;-84
2023/08/04 03:08:42;;;;;;;2.50;0.88;;;;;;;-145.69;68.11;52028.53;5073302;28;20263;-83
2023/08/04 03:11:10;;;;;;;2.05;0.70;;;;;;;-145.69;67.72;52004.75;5080165;28;20198;-83
2023/08/04 03:13:37;;;;;;;2.55;0.70;;;;;;;-145.69;68.85;51969.13;5093024;28;20198;-84
2023/08/04 03:16:06;;;;;;;2.08;1.05;;;;;;;-145.69;68.80;52020.59;5092760;28;20783;-83
2023/08/04 03:18:33;;;;;;;0.90;0.80;;;;;;;-145.69;69.07;52004.75;5093275;28;20226;-83
2023/08/04 03:21:03;;;;;;;3.63;0.90;;;;;;;-145.69;69.34;52020.59;5093471;28;20198;-82
2023/08/04 03:23:34;;;;;;;4.13;0.70;;;;;;;-145.69;69.52;52000.81;5093261;28;20649;-83
2023/08/04 03:26:01;;;;;;;2.45;1.00;;;;;;;-145.69;70.58;51996.84;5096889;28;20197;-83
2023/08/04 03:28:28;;;;;;;1.93;0.93;;;;;;;-145.69;69.96;52032.47;5096705;28;20205;-83
2023/08/04 03:30:54;;;;;;;1.13;0.88;;;;;;;-145.69;69.61;52036.44;5097524;28;20671;-83
2023/08/04 03:33:21;;;;;;;1.75;0.85;;;;;;;-145.69;69.87;52024.56;5098910;28;20259;-83
2023/08/04 03:35:47;;;;;;;0.77;0.52;;;;;;;-145.69;70.31;52032.47;5098439;28;20240;-83
2023/08/04 03:38:16;;;;;;;3.63;1.00;;;;;;;-145.69;69.54;52024.56;5096921;28;20237;-83
2023/08/04 03:40:44;;;;;;;3.28;1.05;;;;;;;-145.69;69.49;52016.66;5097994;28;20293;-83
2023/08/04 03:43:12;;;;;;;1.13;0.90;;;;;;;-145.69;70.10;52024.56;5097647;28;20201;-84
2023/08/04 03:45:42;;;;;;;7.30;0.73;;;;;;;-145.69;69.51;52012.69;5097318;28;20223;-83
2023/08/04 03:48:08;;;;;;;3.28;1.20;;;;;;;-145.69;69.31;52006.75;5099785;28;20209;-85
2023/08/04 03:50:57;;;;;;;6.43;1.20;;;;;;;-145.69;67.90;52008.72;5100782;28;20653;-84
2023/08/04 03:53:27;;;;;;;1.23;0.80;;;;;;;-145.69;68.42;52022.59;5096830;28;20234;-84
2023/08/04 03:55:57;;;;;;;1.17;0.80;;;;;;;-145.69;68.54;52030.50;5095796;28;20194;-84
2023/08/04 03:58:25;;;;;;;2.45;0.82;;;;;;;-145.69;68.47;52014.66;5097318;28;20328;-84
2023/08/04 04:00:52;;;;;;;2.30;0.98;;;;;;;-145.69;68.40;52040.41;5096552;28;20280;-83
2023/08/04 04:03:25;;;;;;;2.25;0.70;;;;;;;-145.69;67.88;52010.69;5097109;28;20213;-83
2023/08/04 04:05:54;;;;;;;1.98;0.95;;;;;;;-145.69;68.93;52008.72;5096087;28;20198;-83
2023/08/04 04:08:20;;;;;;;1.92;0.80;;;;;;;-145.69;68.94;52028.53;5096374;28;20284;-83
2023/08/04 04:10:50;;;;;;;2.03;0.88;;;;;;;-145.69;68.29;52016.66;5096204;28;20738;-83
2023/08/04 04:13:20;;;;;;;2.45;1.00;;;;;;;-145.69;68.11;52000.81;5099371;28;20194;-84
2023/08/04 04:15:52;;;;;;;1.77;0.70;;;;;;;-145.69;67.28;52006.75;5096171;28;20577;-84
2023/08/04 04:18:18;;;;;;;3.50;0.98;;;;;;;-145.69;67.92;52022.59;5095497;28;20217;-84
2023/08/04 04:20:47;;;;;;;2.38;0.90;;;;;;;-145.69;68.16;52006.75;5095828;28;20206;-83
2023/08/04 04:23:18;;;;;;;1.75;0.90;;;;;;;-145.69;68.59;52012.69;5095771;28;20432;-83
2023/08/04 04:25:44;;;;;;;1.48;0.60;;;;;;;-145.69;68.21;51996.84;5096129;28;20208;-83
2023/08/04 04:28:11;;;;;;;1.45;0.80;;;;;;;-145.69;68.02;51996.84;5095320;28;20949;-83
2023/08/04 04:30:39;;;;;;;2.05;0.80;;;;;;;-145.69;67.67;52016.66;5087923;28;20194;-84
2023/08/04 04:33:05;;;;;;;3.97;0.80;;;;;;;-145.69;67.55;52016.66;5094307;28;20259;-84
2023/08/04 04:35:32;;;;;;;3.55;0.90;;;;;;;-145.69;67.18;52008.72;5096037;28;20198;-84
2023/08/04 04:37:58;;;;;;;3.55;0.80;;;;;;;-145.69;67.00;51992.88;5098095;28;20253;-84
2023/08/04 04:40:25;;;;;;;6.80;1.20;;;;;;;-145.69;67.35;51973.06;5097723;28;20198;-84
2023/08/04 04:42:57;;;;;;;2.13;0.93;;;;;;;-145.69;67.33;52020.59;5095558;28;20557;-83
2023/08/04 04:45:23;;;;;;;1.08;0.77;;;;;;;-145.69;67.84;52014.66;5096951;28;20206;-83
2023/08/04 04:47:51;;;;;;;2.97;0.90;;;;;;;-145.69;67.51;51971.09;5096068;28;20197;-84
2023/08/04 04:50:18;;;;;;;1.38;0.85;;;;;;;-145.69;67.74;51979.03;5095336;28;20200;-84
2023/08/04 04:52:47;;;;;;;1.50;0.88;;;;;;;-145.69;67.25;51994.88;5095410;28;20194;-83
2023/08/04 04:55:14;;;;;;;4.15;1.17;;;;;;;-145.69;66.90;51992.88;5095112;28;20202;-84
2023/08/04 04:57:40;;;;;;;4.50;0.65;;;;;;;-145.69;66.43;52028.53;5096209;28;20206;-83
2023/08/04 05:00:08;;;;;;;3.63;0.85;;;;;;;-145.69;66.48;52014.66;5094942;28;20194;-83
2023/08/04 05:02:37;;;;;;;3.30;0.73;;;;;;;-145.69;66.32;52008.72;5096287;28;20202;-83
2023/08/04 05:05:06;;;;;;;2.85;0.80;;;;;;;-145.69;65.56;51977.03;5097877;28;20240;-84
2023/08/04 05:07:34;;;;;;;2.70;0.90;;;;;;;-145.69;65.16;51977.03;5101812;28;20603;-83
2023/08/04 05:10:00;;;;;;;1.55;0.68;;;;;;;-145.69;65.54;52000.81;5095371;28;20595;-85
2023/08/04 05:12:27;;;;;;;2.40;0.80;;;;;;;-145.69;64.96;51992.88;5093571;28;20202;-84
2023/08/04 05:14:55;;;;;;;1.45;0.80;;;;;;;-145.69;64.77;51996.84;5099395;28;20226;-85
2023/08/04 05:17:22;;;;;;;3.20;0.70;;;;;;;-145.69;64.65;51971.09;5098997;28;20288;-85
2023/08/04 05:19:48;;;;;;;0.98;0.73;;;;;;;-145.69;64.81;51979.03;5094626;28;20633;-83
2023/08/04 05:22:17;;;;;;;4.57;0.90;;;;;;;-145.69;64.23;52000.81;5094902;28;20202;-84
2023/08/04 05:24:44;;;;;;;1.60;0.95;;;;;;;-145.69;64.72;51973.06;5094595;28;20198;-84
2023/08/04 05:27:11;;;;;;;1.33;0.85;;;;;;;-145.69;65.10;51996.84;5095006;28;20874;-85
2023/08/04 05:29:39;;;;;;;1.67;0.68;;;;;;;-145.69;65.11;52012.69;5094315;28;20201;-83
2023/08/04 05:32:09;;;;;;;4.43;0.75;;;;;;;-145.69;64.91;51992.88;5094608;28;20292;-84
2023/08/04 05:34:38;;;;;;;0.93;0.60;;;;;;;-145.69;65.50;51965.16;5094547;28;20649;-83
2023/08/04 05:37:05;;;;;;;2.05;0.70;;;;;;;-145.69;66.02;51975.06;5093862;28;20292;-84
2023/08/04 05:39:36;;;;;;;1.95;0.63;;;;;;;-145.69;65.46;51992.88;5094811;28;20224;-84
2023/08/04 05:42:04;;;;;;;4.07;1.00;;;;;;;-145.69;65.44;51965.16;5096614;28;20201;-84
2023/08/04 05:44:32;;;;;;;2.47;0.88;;;;;;;-145.69;65.26;51969.13;5100298;28;20205;-84
2023/08/04 05:46:59;;;;;;;2.05;0.80;;;;;;;-145.69;64.66;51959.22;5099171;28;20201;-85
2023/08/04 05:49:26;;;;;;;2.90;1.00;;;;;;;-145.69;64.79;51977.03;5101272;28;20199;-84
2023/08/04 05:51:55;;;;;;;1.48;0.75;;;;;;;-145.69;64.39;51988.91;5096156;28;20611;-85
2023/08/04 05:54:22;;;;;;;1.63;0.80;;;;;;;-145.69;64.09;51953.28;5095875;28;20198;-84
2023/08/04 05:56:50;;;;;;;1.23;0.60;;;;;;;-145.69;63.81;51990.91;5089758;28;20197;-84
2023/08/04 05:59:16;;;;;;;1.58;0.70;;;;;;;-145.69;63.67;51961.19;5095151;28;20265;-84
2023/08/04 06:01:48;;;;;;;1.35;0.70;;;;;;;-145.69;62.68;51949.31;5099027;28;20229;-84
2023/08/04 06:04:14;;;;;;;1.42;0.73;;;;;;;-145.69;61.56;51973.06;5097048;28;20194;-84
2023/08/04 06:06:41;;;;;;;3.83;0.63;;;;;;;-145.69;61.83;51943.38;5094803;28;20197;-84
2023/08/04 06:09:07;;;;;;;2.22;1.00;;;;;;;-145.69;61.46;51957.25;5094948;28;20202;-84
2023/08/04 06:11:39;;;;;;;4.40;0.77;;;;;;;-145.69;60.40;51971.09;5096401;28;20230;-84
2023/08/04 06:14:10;;;;;;;0.82;0.60;;;;;;;-145.69;59.11;51921.59;5096048;28;20213;-84
2023/08/04 06:16:39;;;;;;;2.58;1.10;;;;;;;-145.69;58.89;51959.22;5095096;28;20241;-85
2023/08/04 06:19:06;;;;;;;2.95;0.65;;;;;;;-145.69;58.24;51917.63;5095248;28;20787;-83
2023/08/04 06:21:35;;;;;;;1.77;0.77;;;;;;;-145.69;57.69;51967.13;5094721;28;20213;-85
2023/08/04 06:24:04;;;;;;;1.25;0.47;;;;;;;-145.69;55.45;51933.47;5094117;28;20201;-84
2023/08/04 06:26:30;;;;;;;1.25;0.52;;;;;;;-145.69;53.44;51965.16;5096206;28;20229;-85
2023/08/04 06:29:02;;;;;;;2.50;0.45;;;;;;;-145.69;51.43;51909.72;5095104;28;20203;-85
2023/08/04 06:31:30;;;;;;;1.40;0.50;;;;;;;-145.69;49.51;51897.84;5095188;28;20186;-85
2023/08/04 06:33:58;;;;;;;1.73;0.70;;;;;;;-145.69;46.70;51899.81;5098591;28;20235;-85
2023/08/04 06:36:24;;;;;;;2.80;0.57;;;;;;;-145.69;47.54;51955.25;5098243;28;20198;-84
2023/08/04 06:38:53;;;;;;;2.03;0.50;;;;;;;-145.69;48.86;51915.66;5104068;28;20222;-84
2023/08/04 06:41:20;;;;;;;2.67;0.75;;;;;;;-145.69;48.66;51945.34;5103828;28;20206;-84
2023/08/04 06:43:47;;;;;;;0.50;0.50;;;;;;;-145.69;48.84;51923.56;5101155;28;20649;-85
2023/08/04 06:46:13;;;;;;;4.00;0.60;;;;;;;-145.69;48.97;51919.63;5103540;28;20237;-85
2023/08/04 06:48:41;;;;;;;0.68;0.50;;;;;;;-145.69;49.07;51893.88;5106670;28;20221;-84
2023/08/04 06:51:09;;;;;;;1.42;0.70;;;;;;;-145.69;48.32;51905.75;5103779;28;20200;-85
2023/08/04 06:53:36;;;;;;;4.32;0.68;;;;;;;-145.69;46.69;51917.63;5100624;28;20206;-84
2023/08/04 06:56:02;;;;;;;2.70;0.47;;;;;;;-145.69;46.13;51876.06;5103778;28;20255;-84
2023/08/04 06:58:32;;;;;;;1.70;0.50;;;;;;;-145.69;45.61;51887.94;5103557;28;20205;-84
2023/08/04 07:01:04;;;;;;;3.65;0.82;;;;;;;-145.69;47.29;51931.50;5099941;28;20262;-85
2023/08/04 07:03:31;;;;;;;3.50;0.80;;;;;;;-145.69;46.46;51931.50;5097281;28;20288;-85
2023/08/04 07:06:01;;;;;;;2.28;0.60;;;;;;;-145.69;45.88;51885.94;5102309;28;20233;-85
2023/08/04 07:08:27;;;;;;;0.43;0.35;;;;;;;-145.69;46.58;51901.78;5100084;28;20225;-84
2023/08/04 07:10:54;;;;;;;5.60;0.73;;;;;;;-145.69;44.25;51901.78;5099531;28;20285;-84
2023/08/04 07:13:29;;;;;;;2.80;0.60;;;;;;;-145.69;43.20;51893.88;5082886;28;20202;-84
2023/08/04 07:15:58;;;;;;;2.92;0.80;;;;;;;-145.69;42.95;51872.09;5094330;28;20225;-85
2023/08/04 07:18:25;;;;;;;3.80;1.02;;;;;;;-145.69;43.63;51885.94;5097929;28;20268;-85
2023/08/04 07:20:54;;;;;;;0.82;0.43;;;;;;;-145.69;42.96;51870.13;5093821;28;20241;-84
2023/08/04 07:23:26;;;;;;;0.52;0.40;;;;;;;-145.69;43.11;51897.84;5096843;28;20202;-83
2023/08/04 07:25:59;;;;;;;3.40;0.80;;;;;;;-145.69;43.33;51885.94;5097043;28;20202;-83
2023/08/04 07:28:27;;;;;;;1.00;0.50;;;;;;;-145.69;43.56;51880.00;5096996;28;20202;-84
2023/08/04 07:30:56;;;;;;;0.95;0.57;;;;;;;-145.69;44.84;51878.03;5098236;28;20225;-84
2023/08/04 07:33:24;;;;;;;3.13;0.82;;;;;;;-145.69;43.04;51885.94;5097955;28;20206;-84
2023/08/04 07:35:53;;;;;;;1.50;0.57;;;;;;;-145.69;42.20;51870.13;5098144;28;20206;-85
2023/08/04 07:38:28;;;;;;;1.05;0.50;;;;;;;-145.69;43.03;51858.22;5101503;28;20202;-84
2023/08/04 07:40:55;;;;;;;1.50;0.50;;;;;;;-145.69;42.05;51870.13;5099496;28;20232;-85
2023/08/04 07:43:25;;;;;;;1.08;0.70;;;;;;;-145.69;40.78;51820.59;5099585;28;20285;-84
2023/08/04 07:45:52;;;;;;;1.83;0.95;;;;;;;-145.69;40.58;51834.47;5102366;28;20258;-82
2023/08/04 07:48:19;;;;;;;0.80;0.50;;;;;;;-145.69;40.42;51856.25;5100366;28;20202;-84
2023/08/04 07:50:48;;;;;;;1.92;0.55;;;;;;;-145.69;39.88;51840.41;5099060;28;20201;-83
2023/08/04 07:53:15;;;;;;;1.08;0.45;;;;;;;-145.69;39.03;51818.63;5097842;28;20248;-82
2023/08/04 07:55:42;;;;;;;2.40;0.60;;;;;;;-145.69;39.70;51820.59;5100504;28;20198;-85
2023/08/04 07:58:09;;;;;;;2.10;0.68;;;;;;;-145.69;40.04;51836.44;5098993;28;20210;-83
2023/08/04 08:00:36;;;;;;;2.42;0.50;;;;;;;-145.69;39.60;51788.94;5099377;28;20316;-82
2023/08/04 08:03:03;;;;;;;2.97;0.50;;;;;;;-145.69;39.29;51810.72;5099983;28;20206;-82
2023/08/04 08:05:30;;;;;;;3.88;0.50;;;;;;;-145.69;40.85;51824.56;5097611;28;20596;-81
2023/08/04 08:07:56;;;;;;;1.83;0.50;;;;;;;-145.69;39.75;51812.69;5097803;28;20221;-83
2023/08/04 08:10:23;;;;;;;1.83;0.60;;;;;;;-145.69;40.23;51822.59;5100951;28;20198;-83
2023/08/04 08:12:51;;;;;;;3.33;0.75;;;;;;;-145.69;40.02;51840.41;5100412;28;20206;-83
2023/08/04 08:15:18;;;;;;;1.65;0.60;;;;;;;-145.69;40.20;51824.56;5099284;28;20317;-83
2023/08/04 08:17:44;;;;;;;2.38;0.60;;;;;;;-145.69;40.30;51834.47;5096931;28;20209;-84
2023/08/04 08:20:11;;;;;;;1.95;0.93;;;;;;;-145.69;40.96;51854.28;5098106;28;20232;-84
2023/08/04 08:22:38;;;;;;;2.47;0.60;;;;;;;-145.69;40.72;51840.41;5098996;28;20198;-84
2023/08/04 08:25:05;;;;;;;1.50;0.60;;;;;;;-145.69;39.79;51842.38;5098536;28;20210;-84
2023/08/04 08:27:31;;;;;;;3.00;0.57;;;;;;;-145.69;39.52;51852.28;5096468;28;20194;-85
2023/08/04 08:30:05;;;;;;;2.72;0.50;;;;;;;-145.69;39.42;51822.59;5097840;28;20603;-83
2023/08/04 08:32:31;;;;;;;1.15;0.45;;;;;;;-145.69;38.70;51834.47;5098115;28;20198;-82
2023/08/04 08:35:00;;;;;;;0.60;0.35;;;;;;;-145.69;38.68;51858.22;5096874;28;20290;-82
2023/08/04 08:37:26;;;;;;;2.03;0.45;;;;;;;-145.69;39.43;51818.63;5098316;28;20221;-81
2023/08/04 08:39:53;;;;;;;1.17;0.40;;;;;;;-145.69;39.11;51818.63;5099829;28;20229;-82
2023/08/04 08:42:19;;;;;;;1.67;0.65;;;;;;;-145.69;39.61;51830.50;5098298;28;20208;-82
2023/08/04 08:44:46;;;;;;;1.00;0.40;;;;;;;-145.69;38.39;51838.44;5097658;28;20198;-82
2023/08/04 08:47:15;;;;;;;1.58;0.40;;;;;;;-145.69;38.37;51802.78;5098028;28;20233;-82
2023/08/04 08:49:51;;;;;;;0.82;0.50;;;;;;;-145.69;38.29;51806.75;5098375;28;20209;-82
2023/08/04 08:52:20;;;;;;;1.40;0.60;;;;;;;-145.69;37.69;51802.78;5097431;28;20258;-82
2023/08/04 08:54:47;;;;;;;1.20;0.40;;;;;;;-145.69;38.91;51828.53;5099568;28;20290;-84
2023/08/04 08:57:16;;;;;;;1.75;0.60;;;;;;;-145.69;38.78;51806.75;5099315;28;20240;-84
2023/08/04 08:59:45;;;;;;;1.27;0.40;;;;;;;-145.69;38.67;51840.41;5099599;28;20251;-84
2023/08/04 09:02:15;;;;;;;1.13;0.50;;;;;;;-145.69;37.47;51794.88;5097887;28;20556;-84
2023/08/04 09:04:42;;;;;;;0.95;0.40;;;;;;;-145.69;36.67;51763.19;5096854;28;20244;-84
2023/08/04 09:07:09;;;;;;;6.00;0.40;;;;;;;-145.69;37.27;51798.81;5097878;28;20297;-84
2023/08/04 09:09:36;;;;;;;1.10;0.40;;;;;;;-145.69;36.37;51826.56;5097504;28;20206;-84
2023/08/04 09:12:06;;;;;;;0.70;0.35;;;;;;;-145.69;35.78;51763.19;5097527;28;20202;-84
2023/08/04 09:14:47;;;;;;;1.52;0.38;;;;;;;-145.69;35.03;51786.94;5097374;28;20255;-83
2023/08/04 09:17:29;;;;;;;1.17;0.50;;;;;;;-145.69;34.90;51783.00;5097408;28;20213;-84
2023/08/04 09:19:55;;;;;;;0.77;0.30;;;;;;;-145.69;35.28;51765.16;5095319;28;20229;-83
2023/08/04 09:22:24;;;;;;;0.82;0.40;;;;;;;-145.69;35.51;51779.03;5091746;28;20276;-84
2023/08/04 09:24:56;;;;;;;1.52;0.50;;;;;;;-145.69;35.75;51788.94;5098059;28;20293;-83
2023/08/04 09:27:34;;;;;;;0.57;0.30;;;;;;;-145.69;35.83;51765.16;5097537;28;20198;-84
2023/08/04 09:30:10;;;;;;;0.30;0.20;;;;;;;-145.69;36.31;51794.88;5097366;28;20233;-84
2023/08/04 09:32:44;;;;;;;1.17;0.30;;;;;;;-145.69;36.32;51779.03;5098913;28;20198;-84
2023/08/04 09:35:12;;;;;;;1.48;0.40;;;;;;;-145.69;37.26;51824.56;5096978;28;20842;-84
2023/08/04 09:37:39;;;;;;;1.65;0.40;;;;;;;-145.69;37.18;51826.56;5095389;28;20649;-83
2023/08/04 09:40:13;;;;;;;0.70;0.35;;;;;;;-145.69;37.14;51792.88;5094540;28;20263;-84
2023/08/04 09:42:42;;;;;;;0.25;0.22;;;;;;;-145.69;37.92;51810.72;5096089;28;20282;-84
2023/08/04 09:45:13;;;;;;;0.60;0.40;;;;;;;-145.69;37.91;51796.84;5095871;28;20209;-82
2023/08/04 09:47:39;;;;;;;1.30;0.40;;;;;;;-145.69;38.45;51798.81;5094034;28;20210;-84
2023/08/04 09:50:11;;;;;;;1.75;0.47;;;;;;;-145.69;36.47;51784.97;5094650;28;20198;-83
2023/08/04 09:52:37;;;;;;;3.22;0.40;;;;;;;-145.69;36.53;51794.88;5095134;28;20198;-85
2023/08/04 09:55:09;;;;;;;0.88;0.30;;;;;;;-145.69;36.34;51796.84;5095802;28;20206;-82
2023/08/04 09:57:36;;;;;;;2.03;0.35;;;;;;;-145.69;36.18;51802.78;5096434;28;20220;-84
2023/08/04 10:00:05;;;;;;;3.38;0.40;;;;;;;-145.69;36.23;51814.66;5094174;28;20685;-84
2023/08/04 10:02:32;;;;;;;0.47;0.30;;;;;;;-145.69;35.95;51810.72;5095623;28;20205;-84
2023/08/04 10:05:03;;;;;;;1.77;0.30;;;;;;;-145.69;36.15;51790.91;5095400;28;20202;-84
2023/08/04 10:07:31;;;;;;;0.75;0.47;;;;;;;-145.69;37.27;51796.84;5094236;28;20209;-85
2023/08/04 10:10:00;;;;;;;3.58;0.30;;;;;;;-145.69;38.21;51830.50;5091822;28;20223;-85
2023/08/04 10:12:28;;;;;;;1.38;0.43;;;;;;;-145.69;39.34;51828.53;5093983;28;20210;-86
2023/08/04 10:15:00;;;;;;;1.13;0.40;;;;;;;-145.69;39.67;51836.44;5093878;28;20230;-84
2023/08/04 10:17:26;;;;;;;0.52;0.40;;;;;;;-145.69;39.91;51844.38;5095551;28;20241;-83
2023/08/04 10:20:04;;;;;;;1.83;0.73;;;;;;;-145.69;39.96;51862.19;5096574;28;20210;-83
2023/08/04 10:22:33;;;;;;;2.63;0.50;;;;;;;-145.69;40.70;51852.28;5073721;28;20194;-84
2023/08/04 10:25:12;;;;;;;2.97;0.50;;;;;;;-145.69;42.22;51838.44;5076481;28;20210;-83
2023/08/04 10:27:47;;;;;;;2.17;0.40;;;;;;;-145.69;41.66;51870.13;5077631;28;20202;-84
2023/08/04 10:30:13;;;;;;;2.80;0.82;;;;;;;-145.69;41.97;51854.28;5076178;28;20252;-83
2023/08/04 10:32:43;;;;;;;0.40;0.40;;;;;;;-145.69;42.47;51885.94;5073307;28;20562;-84
2023/08/04 10:35:18;;;;;;;1.30;0.50;;;;;;;-145.69;43.51;51844.38;5076057;28;20207;-84
2023/08/04 10:37:48;;;;;;;0.82;0.50;;;;;;;-145.69;43.14;51862.19;5094509;28;20198;-83
2023/08/04 10:40:33;;;;;;;1.58;0.50;;;;;;;-145.69;43.06;51844.38;5097335;28;20249;-83
2023/08/04 10:43:04;;;;;;;1.73;0.43;;;;;;;-145.69;41.78;51864.16;5096326;28;20194;-83
2023/08/04 10:45:51;;;;;;;2.15;0.60;;;;;;;-145.69;39.91;51834.47;5093621;28;20202;-83
2023/08/04 10:48:19;;;;;;;1.15;0.40;;;;;;;-145.69;40.32;51818.63;5094764;28;20225;-83
2023/08/04 10:50:45;;;;;;;0.20;0.20;;;;;;;-145.69;40.10;51840.41;5093719;28;20205;-82
2023/08/04 10:53:15;;;;;;;2.92;0.20;;;;;;;-145.69;38.89;51824.56;5098465;28;20241;-83
2023/08/04 10:55:51;;;;;;;0.82;0.40;;;;;;;-145.69;38.37;51806.75;5095870;28;20202;-83
2023/08/04 10:58:21;;;;;;;0.85;0.30;;;;;;;-145.69;38.55;51802.78;5093216;28;20565;-82
2023/08/04 11:00:48;;;;;;;0.70;0.30;;;;;;;-145.69;38.08;51822.59;5097066;28;20285;-81
2023/08/04 11:03:24;;;;;;;0.65;0.30;;;;;;;-145.69;36.75;51783.00;5094467;28;20206;-82
2023/08/04 11:05:54;;;;;;;0.43;0.20;;;;;;;-145.69;36.57;51792.88;5095498;28;20194;-83
2023/08/04 11:08:24;;;;;;;1.85;0.30;;;;;;;-145.69;36.04;51777.03;5094461;28;20201;-81
2023/08/04 11:10:52;;;;;;;1.08;0.30;;;;;;;-145.69;35.87;51751.31;5100268;28;20205;-83
2023/08/04 11:13:22;;;;;;;0.30;0.20;;;;;;;-145.69;35.26;51747.34;5097076;28;20204;-83
2023/08/04 11:15:49;;;;;;;3.30;0.40;;;;;;;-145.69;34.80;51771.09;5097076;28;20313;-83
2023/08/04 11:18:20;;;;;;;0.15;0.15;;;;;;;-145.69;35.51;51763.19;5092055;28;20550;-83
2023/08/04 11:20:52;;;;;;;0.85;0.40;;;;;;;-145.69;35.26;51729.53;5074819;28;20246;-82
2023/08/04 11:23:30;;;;;;;1.00;0.40;;;;;;;-145.69;34.92;51727.53;5076213;28;20803;-83